Rechercher aéroport 
image banner adimage banner adimage banner ad
image banner ad

10NV - Sunrise Mountain View Hospital

Situé à Las Vegas, United States

ICAO - 10NV, IATA -

Données fournies par Airmate  

Information générale

Coordonnées: N36°12'52" W115°14'55"
Élévation : 2328 feet MSL.
 
Voir autres Aéroports à Nevada

Données opérationnelles

Special qualification required
Heure actuelle UTC:
Heure actuelle locale:
Météo à : KVGT - North Las Vegas ( 5 km )
METAR: KVGT 270553Z AUTO 32004KT 10SM CLR 28/21 A2999 RMK AO2 SLP146 6//// T02780206 10333 20267 51014 PNO
TAF: KVGT 270247Z 2703/2724 19007KT P6SM SCT070 BKN120 FM270500 VRB06KT P6SM SCT100 FM271700 12008KT P6SM SCT120
Voir NOTAMs / SUP AIP / TFR affectant cet aéroport [VIEW]
Fréquences de communication: [VIEW]

Pistes:

Coordonnées de l'aéroport

Adresse: Las Vegas United States

Vue satellite de 10NV